Time;durP1;ratioP1;P1;durP2;ratioP2;P2;SDS_P1;SDS_P2;PMS_P1;PMS_P2;Temp;Humidity;BMP_temperature;BMP_pressure;BME280_temperature;BME280_humidity;BME280_pressure;Samples;Min_cycle;Max_cycle;Signal;HPM_P1;HPM_P2
2021/07/27 00:01:26;;;;;;;26.63;10.68;;;;;;;;;;5092942;28;20050;-71
2021/07/27 00:03:52;;;;;;;27.88;11.55;;;;;;;;;;5092941;28;20039;-71
2021/07/27 00:06:18;;;;;;;34.20;12.00;;;;;;;;;;5093014;28;20028;-71
2021/07/27 00:08:44;;;;;;;25.38;11.10;;;;;;;;;;5092831;28;20123;-69
2021/07/27 00:11:12;;;;;;;26.52;11.43;;;;;;;;;;5091850;28;20474;-70
2021/07/27 00:13:39;;;;;;;24.60;10.98;;;;;;;;;;5092884;28;20465;-71
2021/07/27 00:16:05;;;;;;;34.80;11.50;;;;;;;;;;5092955;28;20419;-71
2021/07/27 00:18:32;;;;;;;23.98;10.68;;;;;;;;;;5092811;28;20056;-70
2021/07/27 00:20:58;;;;;;;26.70;10.98;;;;;;;;;;5091449;28;20376;-70
2021/07/27 00:23:25;;;;;;;31.20;11.95;;;;;;;;;;5092769;28;20029;-70
2021/07/27 00:26:13;;;;;;;33.67;11.27;;;;;;;;;;5091129;28;20026;-70
2021/07/27 00:28:39;;;;;;;23.23;11.32;;;;;;;;;;5092673;28;20077;-71
2021/07/27 00:31:07;;;;;;;29.75;11.82;;;;;;;;;;5092683;28;20557;-70
2021/07/27 00:33:33;;;;;;;25.75;11.05;;;;;;;;;;5092685;28;20166;-70
2021/07/27 00:36:02;;;;;;;37.10;12.38;;;;;;;;;;5092722;28;20528;-69
2021/07/27 00:38:28;;;;;;;27.70;11.55;;;;;;;;;;5092564;28;20087;-70
2021/07/27 00:40:55;;;;;;;19.20;10.32;;;;;;;;;;5090988;28;20103;-70
2021/07/27 00:43:21;;;;;;;30.27;12.35;;;;;;;;;;5092847;28;20113;-70
2021/07/27 00:45:47;;;;;;;33.65;13.50;;;;;;;;;;5093551;28;20020;-67
2021/07/27 00:48:14;;;;;;;31.60;13.20;;;;;;;;;;5095713;28;20052;-70
2021/07/27 00:50:40;;;;;;;37.05;13.25;;;;;;;;;;5096167;28;20081;-69
2021/07/27 00:53:07;;;;;;;38.58;18.42;;;;;;;;;;5096134;28;20028;-68
2021/07/27 00:55:34;;;;;;;78.55;35.08;;;;;;;;;;5094829;28;20024;-69
2021/07/27 00:58:00;;;;;;;100.85;43.97;;;;;;;;;;5094773;28;20016;-68
2021/07/27 01:00:27;;;;;;;94.00;41.13;;;;;;;;;;5094627;28;20027;-69
2021/07/27 01:02:53;;;;;;;100.03;41.08;;;;;;;;;;5095969;28;20077;-69
2021/07/27 01:05:20;;;;;;;97.93;40.17;;;;;;;;;;5095889;28;20487;-69
2021/07/27 01:07:46;;;;;;;67.03;29.02;;;;;;;;;;5095932;28;20119;-69
2021/07/27 01:10:13;;;;;;;62.47;25.55;;;;;;;;;;5095761;28;20510;-68
2021/07/27 01:12:40;;;;;;;39.55;15.10;;;;;;;;;;5094457;28;20507;-67
2021/07/27 01:15:07;;;;;;;32.95;13.85;;;;;;;;;;5094431;28;20028;-69
2021/07/27 01:17:34;;;;;;;33.22;12.45;;;;;;;;;;5094469;28;20354;-68
2021/07/27 01:20:16;;;;;;;33.60;12.13;;;;;;;;;;5094337;28;20028;-68
2021/07/27 01:39:29;;;;;;;56.85;21.05;;;;;;;;;;5095348;28;20038;-69
2021/07/27 01:42:12;;;;;;;46.03;20.23;;;;;;;;;;5094018;28;20032;-70
2021/07/27 01:44:44;;;;;;;61.10;20.50;;;;;;;;;;5095259;28;20024;-68
2021/07/27 01:47:11;;;;;;;42.45;17.35;;;;;;;;;;5095180;28;20017;-70
2021/07/27 01:49:37;;;;;;;36.28;15.55;;;;;;;;;;5095028;28;20044;-69
2021/07/27 01:52:03;;;;;;;37.95;15.20;;;;;;;;;;5093711;28;20047;-68
2021/07/27 01:54:44;;;;;;;34.08;15.18;;;;;;;;;;5093652;28;20024;-70
2021/07/27 01:57:11;;;;;;;31.40;14.55;;;;;;;;;;5093699;28;20016;-69
2021/07/27 01:59:38;;;;;;;31.20;14.52;;;;;;;;;;5094862;28;20036;-69
2021/07/27 02:02:04;;;;;;;36.28;13.70;;;;;;;;;;5094786;28;20024;-71
2021/07/27 02:04:30;;;;;;;27.35;13.88;;;;;;;;;;5093459;28;20024;-71
2021/07/27 02:06:57;;;;;;;28.98;14.02;;;;;;;;;;5095032;28;20035;-69
2021/07/27 02:09:24;;;;;;;30.27;14.35;;;;;;;;;;5093294;28;20472;-70
2021/07/27 02:11:54;;;;;;;36.13;13.88;;;;;;;;;;5093590;28;20380;-70
2021/07/27 02:14:23;;;;;;;31.65;14.20;;;;;;;;;;5094649;28;20111;-71
2021/07/27 02:16:50;;;;;;;37.25;14.57;;;;;;;;;;5094592;28;20089;-67
2021/07/27 02:19:16;;;;;;;28.98;13.57;;;;;;;;;;5094464;28;20020;-68
2021/07/27 02:21:42;;;;;;;33.72;13.85;;;;;;;;;;5094426;28;20024;-68
2021/07/27 02:24:08;;;;;;;30.17;14.25;;;;;;;;;;5094391;28;20044;-69
2021/07/27 02:26:34;;;;;;;29.52;14.65;;;;;;;;;;5094404;28;20063;-68
2021/07/27 02:29:01;;;;;;;66.40;24.08;;;;;;;;;;5092927;28;20055;-68
2021/07/27 02:31:32;;;;;;;75.18;29.80;;;;;;;;;;5092978;28;20031;-70
2021/07/27 02:33:59;;;;;;;58.85;24.25;;;;;;;;;;5092960;28;20028;-71
2021/07/27 02:36:25;;;;;;;54.25;22.30;;;;;;;;;;5094195;28;20078;-71
2021/07/27 02:38:51;;;;;;;48.25;21.02;;;;;;;;;;5094094;28;20024;-69
2021/07/27 02:41:20;;;;;;;24.98;13.07;;;;;;;;;;5094103;28;20092;-71
2021/07/27 02:43:46;;;;;;;43.40;15.48;;;;;;;;;;5094247;28;20107;-70
2021/07/27 02:46:13;;;;;;;35.75;14.00;;;;;;;;;;5092694;28;20111;-71
2021/07/27 02:48:43;;;;;;;37.13;14.88;;;;;;;;;;5093372;28;20078;-71
2021/07/27 02:51:11;;;;;;;26.77;13.40;;;;;;;;;;5092584;28;20372;-71
2021/07/27 02:53:38;;;;;;;34.70;13.70;;;;;;;;;;5092494;28;20020;-71
2021/07/27 02:56:04;;;;;;;41.83;14.80;;;;;;;;;;5093781;28;20103;-70
2021/07/27 02:58:31;;;;;;;34.90;13.95;;;;;;;;;;5093816;28;20103;-70
2021/07/27 03:00:57;;;;;;;33.08;13.32;;;;;;;;;;5093773;28;20024;-69
2021/07/27 03:03:24;;;;;;;35.90;14.10;;;;;;;;;;5092342;28;20022;-70
2021/07/27 03:05:55;;;;;;;30.25;14.15;;;;;;;;;;5092304;28;20415;-70
2021/07/27 03:08:23;;;;;;;26.27;13.85;;;;;;;;;;5093245;28;20028;-69
2021/07/27 03:10:49;;;;;;;33.13;13.40;;;;;;;;;;5093583;28;20523;-69
2021/07/27 03:13:15;;;;;;;33.88;14.80;;;;;;;;;;5093500;28;20020;-71
2021/07/27 03:15:41;;;;;;;39.25;15.20;;;;;;;;;;5093501;28;20147;-71
2021/07/27 03:18:08;;;;;;;34.05;14.00;;;;;;;;;;5093229;28;20024;-71
2021/07/27 03:20:34;;;;;;;33.97;14.40;;;;;;;;;;5093143;28;20431;-72
2021/07/27 03:23:00;;;;;;;40.25;13.85;;;;;;;;;;5092105;28;20024;-68
2021/07/27 03:25:27;;;;;;;34.65;15.05;;;;;;;;;;5093369;28;20024;-71
2021/07/27 03:27:53;;;;;;;37.97;15.48;;;;;;;;;;5093159;28;20055;-74
2021/07/27 03:30:20;;;;;;;38.67;16.40;;;;;;;;;;5093273;28;20024;-69
2021/07/27 03:32:47;;;;;;;44.42;16.15;;;;;;;;;;5092999;28;20107;-71
2021/07/27 03:35:14;;;;;;;34.42;14.98;;;;;;;;;;5091907;28;20511;-70
2021/07/27 03:37:40;;;;;;;32.38;14.52;;;;;;;;;;5091988;28;20016;-69
2021/07/27 03:40:06;;;;;;;32.13;13.90;;;;;;;;;;5091877;28;20028;-69
2021/07/27 03:42:33;;;;;;;34.78;14.75;;;;;;;;;;5091856;28;20021;-67
2021/07/27 03:45:00;;;;;;;36.30;15.88;;;;;;;;;;5093426;28;20107;-70
2021/07/27 03:47:27;;;;;;;41.97;15.35;;;;;;;;;;5091870;28;20052;-70
2021/07/27 03:49:56;;;;;;;36.30;17.30;;;;;;;;;;5091554;28;20052;-70
2021/07/27 03:52:22;;;;;;;33.92;16.33;;;;;;;;;;5091769;28;20483;-72
2021/07/27 03:54:49;;;;;;;41.08;17.08;;;;;;;;;;5093018;28;20097;-71
2021/07/27 03:57:16;;;;;;;43.28;17.80;;;;;;;;;;5091776;28;20060;-71
2021/07/27 03:59:42;;;;;;;43.78;18.40;;;;;;;;;;5093032;28;20020;-70
2021/07/27 04:02:08;;;;;;;40.67;17.75;;;;;;;;;;5092652;28;20081;-70
2021/07/27 04:04:35;;;;;;;34.78;16.33;;;;;;;;;;5092663;28;20423;-71
2021/07/27 04:07:02;;;;;;;45.00;16.10;;;;;;;;;;5092945;28;20480;-71
2021/07/27 04:09:28;;;;;;;36.78;15.90;;;;;;;;;;5092823;28;20044;-71
2021/07/27 04:11:54;;;;;;;33.42;14.18;;;;;;;;;;5092904;28;20020;-70
2021/07/27 04:14:20;;;;;;;31.27;14.10;;;;;;;;;;5092823;28;20020;-70
2021/07/27 04:16:49;;;;;;;30.95;14.30;;;;;;;;;;5092588;28;20395;-70
2021/07/27 04:19:16;;;;;;;31.17;14.00;;;;;;;;;;5092877;28;20028;-71
2021/07/27 04:21:42;;;;;;;34.45;14.20;;;;;;;;;;5095284;28;20028;-71
2021/07/27 04:24:09;;;;;;;26.48;13.43;;;;;;;;;;5096712;28;20023;-70
2021/07/27 04:26:35;;;;;;;26.55;12.77;;;;;;;;;;5095406;28;20436;-70
2021/07/27 04:29:01;;;;;;;33.60;13.00;;;;;;;;;;5096574;28;20043;-69
2021/07/27 04:31:28;;;;;;;30.35;13.70;;;;;;;;;;5096671;28;20016;-70
2021/07/27 04:33:54;;;;;;;22.65;12.60;;;;;;;;;;5095194;28;20376;-70
2021/07/27 04:36:21;;;;;;;28.05;13.43;;;;;;;;;;5096510;28;20070;-69
2021/07/27 04:38:47;;;;;;;33.22;14.27;;;;;;;;;;5096791;28;20107;-69
2021/07/27 04:41:13;;;;;;;37.25;15.27;;;;;;;;;;5096350;28;20103;-70
2021/07/27 04:43:40;;;;;;;33.08;15.77;;;;;;;;;;5096344;28;20024;-69
2021/07/27 04:46:07;;;;;;;28.00;15.32;;;;;;;;;;5096248;28;20016;-70
2021/07/27 04:48:35;;;;;;;38.45;16.73;;;;;;;;;;5096069;28;20174;-70
2021/07/27 04:51:01;;;;;;;47.55;20.17;;;;;;;;;;5096171;28;20039;-70
2021/07/27 04:53:30;;;;;;;51.47;22.23;;;;;;;;;;5096166;28;20107;-69
2021/07/27 04:56:01;;;;;;;35.70;18.08;;;;;;;;;;5096152;28;20055;-70
2021/07/27 04:58:27;;;;;;;35.30;17.20;;;;;;;;;;5096162;28;20020;-70
2021/07/27 05:00:53;;;;;;;45.22;17.25;;;;;;;;;;5096015;28;20012;-70
2021/07/27 05:03:20;;;;;;;40.80;17.08;;;;;;;;;;5094735;28;20024;-68
2021/07/27 05:05:47;;;;;;;35.10;16.58;;;;;;;;;;5095967;28;20099;-70
2021/07/27 05:08:15;;;;;;;44.60;16.63;;;;;;;;;;5095888;28;20027;-72
2021/07/27 05:10:43;;;;;;;40.67;18.40;;;;;;;;;;5095835;28;20028;-70
2021/07/27 05:13:10;;;;;;;39.63;17.33;;;;;;;;;;5095785;28;20024;-70
2021/07/27 05:15:36;;;;;;;35.70;16.40;;;;;;;;;;5095558;28;20472;-69
2021/07/27 05:18:02;;;;;;;34.55;17.02;;;;;;;;;;5115494;28;20106;-70
2021/07/27 05:20:28;;;;;;;47.50;17.88;;;;;;;;;;5116058;28;20490;-70
2021/07/27 05:22:55;;;;;;;40.58;16.83;;;;;;;;;;5115992;28;20120;-68
2021/07/27 05:25:21;;;;;;;39.15;16.52;;;;;;;;;;5115702;28;20062;-71
2021/07/27 05:27:48;;;;;;;36.25;17.10;;;;;;;;;;5115263;28;20103;-70
2021/07/27 05:30:14;;;;;;;54.92;17.50;;;;;;;;;;5115685;28;20031;-69
2021/07/27 05:32:41;;;;;;;47.08;19.70;;;;;;;;;;5115476;28;20048;-70
2021/07/27 05:35:08;;;;;;;38.00;16.45;;;;;;;;;;5115637;28;20531;-68
2021/07/27 05:37:34;;;;;;;50.25;20.27;;;;;;;;;;5115922;28;20110;-71
2021/07/27 05:40:00;;;;;;;44.58;19.50;;;;;;;;;;5115593;28;20028;-71
2021/07/27 05:42:26;;;;;;;49.83;19.17;;;;;;;;;;5115541;28;20527;-70
2021/07/27 05:44:53;;;;;;;41.03;20.77;;;;;;;;;;5115548;28;20107;-69
2021/07/27 05:47:19;;;;;;;40.00;19.73;;;;;;;;;;5115499;28;20100;-71
2021/07/27 05:49:46;;;;;;;37.85;18.23;;;;;;;;;;5115381;28;20130;-72
2021/07/27 05:52:12;;;;;;;39.67;16.75;;;;;;;;;;5115416;28;20026;-71
2021/07/27 05:54:42;;;;;;;34.63;16.13;;;;;;;;;;5115258;28;20038;-70
2021/07/27 05:57:15;;;;;;;35.15;16.10;;;;;;;;;;5115024;28;20548;-72
2021/07/27 05:59:42;;;;;;;37.05;15.73;;;;;;;;;;5115291;28;20027;-69
2021/07/27 06:02:09;;;;;;;32.90;14.88;;;;;;;;;;5115153;28;20024;-71
2021/07/27 06:04:35;;;;;;;39.35;15.93;;;;;;;;;;5115168;28;20015;-69
2021/07/27 06:07:02;;;;;;;34.08;15.02;;;;;;;;;;5114146;28;20012;-71
2021/07/27 06:09:28;;;;;;;35.75;14.88;;;;;;;;;;5113316;28;20087;-70
2021/07/27 06:11:55;;;;;;;38.13;14.50;;;;;;;;;;5115231;28;20555;-70
2021/07/27 06:14:21;;;;;;;34.40;16.38;;;;;;;;;;5115210;28;20470;-70
2021/07/27 06:16:47;;;;;;;40.13;16.40;;;;;;;;;;5114870;28;20043;-70
2021/07/27 06:19:13;;;;;;;36.20;14.05;;;;;;;;;;5114596;28;20061;-71
2021/07/27 06:21:40;;;;;;;35.22;11.73;;;;;;;;;;5112903;28;20112;-71
2021/07/27 06:24:07;;;;;;;39.85;12.05;;;;;;;;;;5115030;28;20480;-69
2021/07/27 06:26:33;;;;;;;31.08;13.30;;;;;;;;;;5114554;28;20499;-72
2021/07/27 06:29:01;;;;;;;34.65;13.80;;;;;;;;;;5113064;28;20110;-69
2021/07/27 06:31:28;;;;;;;30.40;13.40;;;;;;;;;;5114497;28;20166;-69
2021/07/27 06:33:54;;;;;;;31.55;13.85;;;;;;;;;;5114316;28;20418;-68
2021/07/27 06:36:20;;;;;;;33.20;12.77;;;;;;;;;;5114417;28;20050;-69
2021/07/27 06:38:46;;;;;;;31.77;12.93;;;;;;;;;;5114112;28;20175;-68
2021/07/27 06:41:13;;;;;;;35.85;13.07;;;;;;;;;;5114033;28;20392;-69
2021/07/27 06:43:41;;;;;;;32.33;12.80;;;;;;;;;;5113684;28;20027;-70
2021/07/27 06:46:07;;;;;;;36.80;13.05;;;;;;;;;;5113007;28;20024;-70
2021/07/27 06:48:34;;;;;;;31.60;13.35;;;;;;;;;;5113930;28;20480;-71
2021/07/27 06:51:10;;;;;;;35.78;13.55;;;;;;;;;;5112871;28;20051;-71
2021/07/27 06:53:37;;;;;;;29.83;12.30;;;;;;;;;;5114183;28;20031;-72
2021/07/27 06:56:03;;;;;;;42.22;14.48;;;;;;;;;;5112858;28;20380;-71
2021/07/27 06:58:29;;;;;;;35.42;12.35;;;;;;;;;;5114406;28;20030;-72
2021/07/27 07:00:56;;;;;;;35.92;13.07;;;;;;;;;;5114070;28;20012;-72
2021/07/27 07:03:22;;;;;;;37.42;13.65;;;;;;;;;;5114009;28;20024;-72
2021/07/27 07:05:48;;;;;;;39.72;13.55;;;;;;;;;;5114048;28;20024;-71
2021/07/27 07:08:14;;;;;;;29.02;12.63;;;;;;;;;;5112538;28;20024;-72
2021/07/27 07:10:40;;;;;;;36.28;11.88;;;;;;;;;;5112614;28;20111;-70
2021/07/27 07:13:07;;;;;;;36.03;11.68;;;;;;;;;;5113873;28;20022;-72
2021/07/27 07:15:33;;;;;;;33.95;12.10;;;;;;;;;;5112524;28;20028;-72
2021/07/27 07:17:59;;;;;;;30.73;11.10;;;;;;;;;;5112542;28;20096;-71
2021/07/27 07:20:27;;;;;;;21.90;10.50;;;;;;;;;;5114099;28;20028;-73
2021/07/27 07:22:53;;;;;;;27.95;10.80;;;;;;;;;;5113715;28;20019;-71
2021/07/27 07:25:19;;;;;;;29.83;11.68;;;;;;;;;;5113731;28;20032;-71
2021/07/27 07:27:46;;;;;;;27.95;11.73;;;;;;;;;;5112225;28;20147;-72
2021/07/27 07:30:12;;;;;;;33.22;10.45;;;;;;;;;;5112133;28;20032;-72
2021/07/27 07:32:38;;;;;;;25.08;10.20;;;;;;;;;;5113385;28;20110;-71
2021/07/27 07:35:05;;;;;;;24.90;10.98;;;;;;;;;;5113248;28;20107;-72
2021/07/27 07:37:31;;;;;;;26.70;10.68;;;;;;;;;;5112086;28;20088;-72
2021/07/27 07:39:57;;;;;;;24.48;11.30;;;;;;;;;;5113825;28;20050;-74
2021/07/27 07:42:23;;;;;;;32.25;10.93;;;;;;;;;;5113072;28;20095;-71
2021/07/27 07:44:50;;;;;;;29.15;10.60;;;;;;;;;;5112015;28;20073;-72
2021/07/27 07:47:16;;;;;;;20.55;10.00;;;;;;;;;;5113402;28;20038;-72
2021/07/27 07:49:42;;;;;;;27.95;10.73;;;;;;;;;;5110861;28;20130;-74
2021/07/27 07:52:08;;;;;;;31.20;12.57;;;;;;;;;;5111787;28;20024;-73
2021/07/27 07:54:35;;;;;;;22.35;10.68;;;;;;;;;;5112914;28;20099;-73
2021/07/27 07:57:01;;;;;;;22.00;9.38;;;;;;;;;;5116383;28;20122;-74
2021/07/27 07:59:27;;;;;;;20.90;9.40;;;;;;;;;;5116277;28;20020;-73
2021/07/27 08:01:59;;;;;;;27.65;9.98;;;;;;;;;;5115091;28;20076;-72
2021/07/27 08:04:25;;;;;;;28.15;8.98;;;;;;;;;;5115825;28;20068;-72
2021/07/27 08:06:52;;;;;;;18.70;9.10;;;;;;;;;;5116000;28;20054;-73
2021/07/27 08:09:18;;;;;;;25.55;9.77;;;;;;;;;;5117520;28;20182;-72
2021/07/27 08:11:44;;;;;;;25.35;9.23;;;;;;;;;;5116016;28;20026;-71
2021/07/27 08:14:11;;;;;;;28.63;9.77;;;;;;;;;;5115922;28;20026;-72
2021/07/27 08:16:37;;;;;;;27.58;9.82;;;;;;;;;;5117283;28;20502;-75
2021/07/27 08:19:04;;;;;;;22.70;8.63;;;;;;;;;;5117431;28;20160;-73
2021/07/27 08:21:31;;;;;;;24.25;8.23;;;;;;;;;;5115839;28;20039;-72
2021/07/27 08:23:57;;;;;;;20.10;8.73;;;;;;;;;;5117346;28;20051;-72
2021/07/27 08:26:23;;;;;;;20.42;7.32;;;31.20;64.00;;;;;;5115720;28;20107;-72
2021/07/27 08:28:49;;;;;;;16.40;7.65;;;31.30;63.50;;;;;;5116990;28;20115;-73
2021/07/27 08:31:15;;;;;;;17.83;7.60;;;31.50;63.00;;;;;;5116677;28;20418;-73
2021/07/27 08:33:42;;;;;;;18.45;7.25;;;31.60;65.80;;;;;;5116948;28;20028;-71
2021/07/27 08:36:08;;;;;;;19.42;7.75;;;31.80;88.60;;;;;;5116877;28;20448;-71
2021/07/27 08:38:34;;;;;;;20.67;7.75;;;31.90;81.80;;;;;;5116731;28;20038;-75
2021/07/27 08:41:02;;;;;;;24.65;7.32;;;32.00;79.80;;;;;;5117078;27;20167;-73
2021/07/27 08:43:28;;;;;;;24.40;7.90;;;32.10;78.90;;;;;;5115429;28;20211;-74
2021/07/27 08:45:55;;;;;;;22.73;8.10;;;32.20;78.20;;;;;;5116725;27;20038;-72
2021/07/27 08:48:22;;;;;;;26.00;7.97;;;32.30;80.50;;;;;;5116421;27;20050;-73
2021/07/27 08:50:48;;;;;;;24.25;7.57;;;32.40;90.10;;;;;;5116590;28;20040;-72
2021/07/27 08:53:14;;;;;;;18.80;8.45;;;;;;;;;;5116580;28;20074;-73
2021/07/27 08:55:41;;;;;;;23.10;8.65;;;;;;;;;;5116448;28;20147;-73
2021/07/27 08:58:07;;;;;;;20.70;8.10;;;;;;;;;;5116488;28;20077;-72
2021/07/27 09:00:33;;;;;;;19.13;8.48;;;;;;;;;;5116386;28;20039;-72
2021/07/27 09:03:20;;;;;;;19.85;7.20;;;;;;;;;;5116585;28;20027;-72
2021/07/27 09:05:47;;;;;;;13.80;6.93;;;33.00;97.00;;;;;;5114994;28;20535;-73
2021/07/27 09:08:16;;;;;;;23.98;7.15;;;33.10;64.30;;;;;;5115647;28;20027;-72
2021/07/27 09:10:45;;;;;;;21.23;7.35;;;33.30;79.20;;;;;;5116355;28;20385;-73
2021/07/27 09:13:13;;;;;;;16.42;7.40;;;33.30;63.40;;;;;;5116494;28;20015;-73
2021/07/27 09:15:41;;;;;;;14.65;6.80;;;33.30;64.40;;;;;;5116191;28;20459;-73
2021/07/27 09:18:12;;;;;;;22.25;7.95;;;33.40;63.20;;;;;;5116149;28;20034;-73
2021/07/27 09:20:40;;;;;;;23.85;7.93;;;33.60;63.80;;;;;;5116172;28;20107;-74
2021/07/27 09:23:12;;;;;;;18.88;7.57;;;33.70;63.90;;;;;;5116289;28;20416;-73
2021/07/27 09:25:44;;;;;;;19.35;8.10;;;33.90;67.00;;;;;;5116299;28;20024;-73
2021/07/27 09:28:10;;;;;;;23.08;8.57;;;34.10;65.90;;;;;;5116007;28;20023;-73
2021/07/27 09:30:38;;;;;;;27.67;9.23;;;34.20;65.50;;;;;;5115845;28;20027;-74
2021/07/27 09:33:09;;;;;;;24.85;9.23;;;34.30;63.60;;;;;;5114470;28;20038;-72
2021/07/27 09:35:35;;;;;;;23.08;7.93;;;34.40;62.90;;;;;;5115854;28;20023;-73
2021/07/27 09:38:05;;;;;;;23.25;7.72;;;34.60;65.20;;;;;;5115684;28;20020;-73
2021/07/27 09:40:33;;;;;;;22.67;7.57;;;34.70;61.30;;;;;;5115722;28;20156;-73
2021/07/27 09:42:59;;;;;;;13.93;6.10;;;34.80;71.30;;;;;;5115618;28;20471;-74
2021/07/27 09:45:26;;;;;;;16.67;7.45;;;34.80;60.30;;;;;;5115546;28;20027;-74
2021/07/27 09:47:54;;;;;;;16.98;6.13;;;35.00;65.90;;;;;;5115288;28;20020;-74
2021/07/27 09:50:23;;;;;;;18.42;6.95;;;35.10;60.00;;;;;;5115110;28;20028;-73
2021/07/27 09:52:49;;;;;;;20.25;6.82;;;35.20;59.80;;;;;;5115392;28;20028;-73
2021/07/27 09:55:15;;;;;;;17.92;7.18;;;35.30;60.00;;;;;;5115348;28;20139;-74
2021/07/27 09:57:42;;;;;;;25.10;7.20;;;;;;;;;;5113958;28;20024;-73
2021/07/27 10:00:10;;;;;;;17.88;5.85;;;;;;;;;;5115300;28;20030;-73
2021/07/27 10:02:43;;;;;;;17.55;7.05;;;;;;;;;;5115485;28;20027;-72
2021/07/27 10:05:10;;;;;;;23.33;6.75;;;;;;;;;;5115147;28;20031;-73
2021/07/27 10:07:36;;;;;;;24.55;7.88;;;35.40;57.60;;;;;;5115091;28;20110;-73
2021/07/27 10:10:22;;;;;;;22.02;7.50;;;;;;;;;;5114969;28;20027;-73
2021/07/27 10:12:47;;;;;;;15.65;7.03;;;36.10;57.70;;;;;;5115046;28;20445;-72
2021/07/27 10:15:16;;;;;;;21.70;7.00;;;36.40;56.10;;;;;;5114986;28;20031;-72
2021/07/27 10:18:08;;;;;;;21.80;6.50;;;36.40;56.70;;;;;;5114430;28;20024;-72
2021/07/27 10:20:34;;;;;;;17.23;6.43;;;36.50;56.80;;;;;;5111259;28;20082;-72
2021/07/27 10:23:00;;;;;;;19.13;7.30;;;36.70;58.50;;;;;;5114740;27;20464;-72
2021/07/27 10:25:26;;;;;;;23.90;7.28;;;36.80;57.50;;;;;;5114489;28;20388;-75
2021/07/27 10:27:53;;;;;;;21.50;8.30;;;37.00;57.70;;;;;;5113330;28;20023;-74
2021/07/27 10:30:39;;;;;;;23.08;8.15;;;37.20;57.20;;;;;;5114679;28;20027;-73
2021/07/27 10:33:05;;;;;;;21.83;8.18;;;37.50;57.30;;;;;;5114700;28;20038;-72
2021/07/27 10:35:34;;;;;;;22.10;8.15;;;37.80;57.50;;;;;;5114611;28;20036;-73
2021/07/27 10:38:11;;;;;;;21.35;7.60;;;38.10;56.10;;;;;;5113190;28;20023;-74
2021/07/27 10:40:37;;;;;;;20.38;7.60;;;38.40;54.90;;;;;;5114559;28;20118;-74
2021/07/27 10:43:05;;;;;;;22.27;7.82;;;38.80;53.80;;;;;;5114394;28;20024;-73
2021/07/27 10:45:31;;;;;;;16.20;7.22;;;39.10;54.50;;;;;;5114409;28;20028;-72
2021/07/27 10:47:57;;;;;;;21.27;7.43;;;39.60;54.70;;;;;;5114083;28;20043;-73
2021/07/27 10:50:26;;;;;;;26.98;7.03;;;40.00;53.40;;;;;;5112980;28;20032;-74
2021/07/27 10:53:00;;;;;;;15.20;7.60;;;40.30;53.10;;;;;;5114312;28;20027;-74
2021/07/27 10:55:28;;;;;;;21.33;7.70;;;40.70;50.70;;;;;;5114264;28;20028;-74
2021/07/27 10:57:56;;;;;;;19.30;7.50;;;41.00;51.50;;;;;;5114219;28;20027;-74
2021/07/27 11:00:34;;;;;;;18.27;7.28;;;41.10;50.40;;;;;;5114158;28;20024;-74
2021/07/27 11:03:00;;;;;;;30.98;8.13;;;41.60;50.10;;;;;;5114118;28;20061;-72
2021/07/27 11:05:27;;;;;;;21.33;6.35;;;41.90;50.20;;;;;;5113786;28;20376;-73
2021/07/27 11:07:53;;;;;;;22.30;7.25;;;42.00;49.80;;;;;;5113978;28;20035;-72
2021/07/27 11:10:23;;;;;;;16.67;6.05;;;42.50;47.90;;;;;;5113821;28;20035;-73
2021/07/27 11:12:49;;;;;;;26.83;7.13;;;42.90;47.90;;;;;;5114209;28;20353;-72
2021/07/27 11:15:21;;;;;;;23.02;5.88;;;43.10;48.60;;;;;;5113864;28;20036;-73
2021/07/27 11:17:52;;;;;;;25.85;6.45;;;43.40;45.40;;;;;;5113934;28;20084;-73
2021/07/27 11:20:23;;;;;;;24.95;5.88;;;43.50;45.30;;;;;;5113886;28;20417;-73
2021/07/27 11:22:56;;;;;;;19.67;6.35;;;43.50;45.60;;;;;;5113793;28;20032;-73
2021/07/27 11:25:25;;;;;;;23.42;6.07;;;43.50;46.80;;;;;;5112472;28;20051;-73
2021/07/27 11:27:52;;;;;;;20.83;5.95;;;;;;;;;;5113390;28;20023;-73
2021/07/27 11:30:19;;;;;;;18.13;6.30;;;;;;;;;;5112043;28;20027;-72
2021/07/27 11:32:51;;;;;;;23.17;6.30;;;;;;;;;;5112415;28;20049;-74
2021/07/27 11:35:21;;;;;;;21.67;5.70;;;;;;;;;;5113307;28;20357;-74
2021/07/27 11:38:00;;;;;;;21.33;6.55;;;;;;;;;;5113583;28;20015;-73
2021/07/27 11:40:26;;;;;;;17.38;5.45;;;;;;;;;;5112293;28;20118;-75
2021/07/27 11:43:06;;;;;;;20.05;5.53;;;;;;;;;;5113518;28;20023;-74
2021/07/27 11:45:33;;;;;;;23.40;6.18;;;;;;;;;;5113618;28;20020;-71
2021/07/27 11:47:59;;;;;;;19.38;5.75;;;;;;;;;;5117902;28;20075;-72
2021/07/27 11:50:30;;;;;;;13.00;5.05;;;;;;;;;;5133827;28;20072;-72
2021/07/27 11:52:58;;;;;;;16.98;5.72;;;;;;;;;;5134085;28;20038;-72
2021/07/27 11:55:30;;;;;;;17.17;6.47;;;;;;;;;;5133872;28;20019;-72
2021/07/27 11:57:57;;;;;;;21.77;6.22;;;;;;;;;;5134216;28;20023;-72
2021/07/27 12:00:23;;;;;;;23.38;6.25;;;;;;;;;;5115498;28;20455;-73
2021/07/27 12:02:49;;;;;;;19.25;6.07;;;;;;;;;;5133904;28;20095;-72
2021/07/27 12:05:15;;;;;;;16.30;5.72;;;;;;;;;;5134046;28;20030;-73
2021/07/27 12:07:42;;;;;;;16.73;5.75;;;;;;;;;;5133747;28;20467;-73
2021/07/27 12:10:08;;;;;;;19.88;5.88;;;;;;;;;;5133686;28;20037;-72
2021/07/27 12:12:35;;;;;;;17.00;4.97;;;;;;;;;;5133847;28;20390;-72
2021/07/27 12:15:01;;;;;;;22.27;5.43;;;;;;;;;;5133716;28;20026;-72
2021/07/27 12:17:28;;;;;;;19.15;5.57;;;;;;;;;;5133877;28;20027;-72
2021/07/27 12:19:54;;;;;;;19.63;5.72;;;;;;;;;;5133651;28;20551;-72
2021/07/27 12:22:20;;;;;;;16.17;5.15;;;;;;;;;;5133393;28;20115;-73
2021/07/27 12:24:46;;;;;;;16.00;5.35;;;;;;;;;;5133582;28;20019;-73
2021/07/27 12:27:13;;;;;;;25.77;5.60;;;47.80;41.00;;;;;;5133582;28;20530;-72
2021/07/27 12:29:39;;;;;;;16.50;5.20;;;47.90;41.10;;;;;;5133231;28;20043;-72
2021/07/27 12:32:05;;;;;;;16.55;4.72;;;47.90;39.70;;;;;;5133608;28;20544;-73
2021/07/27 12:34:31;;;;;;;22.60;4.90;;;48.10;39.70;;;;;;5133520;28;20459;-73
2021/07/27 12:36:57;;;;;;;13.57;4.93;;;48.20;39.90;;;;;;5133516;28;20019;-73
2021/07/27 12:39:23;;;;;;;10.30;4.50;;;48.40;40.00;;;;;;5133459;28;20028;-73
2021/07/27 12:41:50;;;;;;;16.10;5.35;;;48.50;39.90;;;;;;5116130;27;20076;-73
2021/07/27 12:44:16;;;;;;;22.02;5.25;;;48.50;40.60;;;;;;5137311;27;20042;-74
2021/07/27 12:46:45;;;;;;;24.45;5.57;;;48.80;40.80;;;;;;5137272;27;20023;-72
2021/07/27 12:49:16;;;;;;;16.77;5.15;;;49.10;39.80;;;;;;5136628;27;20122;-73
2021/07/27 12:51:42;;;;;;;15.25;4.80;;;49.20;39.00;;;;;;5118780;27;20035;-72
2021/07/27 12:54:08;;;;;;;12.23;4.57;;;49.50;41.10;;;;;;5137061;27;20027;-71
2021/07/27 12:56:35;;;;;;;13.18;5.18;;;49.20;40.30;;;;;;5137102;27;20077;-73
2021/07/27 12:59:01;;;;;;;15.13;4.47;;;49.60;39.60;;;;;;5137027;27;20428;-71
2021/07/27 13:01:27;;;;;;;22.92;9.02;;;49.80;39.70;;;;;;5118654;27;20087;-72
2021/07/27 13:03:52;;;;;;;14.18;4.60;;;50.00;39.30;;;;;;5118423;27;20075;-72
2021/07/27 13:06:18;;;;;;;19.52;5.38;;;50.30;38.40;;;;;;5136872;27;20027;-71
2021/07/27 13:08:45;;;;;;;17.52;5.35;;;50.40;39.20;;;;;;5136743;27;20072;-72
2021/07/27 13:11:12;;;;;;;15.18;4.68;;;50.40;37.40;;;;;;5136797;27;20031;-72
2021/07/27 13:13:37;;;;;;;13.80;4.97;;;50.50;38.30;;;;;;5136744;27;20106;-73
2021/07/27 13:16:04;;;;;;;16.40;4.85;;;50.40;38.50;;;;;;5136957;27;20106;-72
2021/07/27 13:18:29;;;;;;;16.83;5.20;;;50.50;37.20;;;;;;5118116;27;20023;-71
2021/07/27 13:20:55;;;;;;;15.65;4.78;;;50.50;38.00;;;;;;5136240;27;20513;-74
2021/07/27 13:23:21;;;;;;;18.33;5.40;;;50.40;36.90;;;;;;5118063;27;20032;-72
2021/07/27 13:25:47;;;;;;;18.77;5.05;;;50.70;37.70;;;;;;5117970;27;20379;-73
2021/07/27 13:28:13;;;;;;;16.38;4.60;;;50.80;37.40;;;;;;5117920;27;20082;-73
2021/07/27 13:30:40;;;;;;;14.80;4.95;;;50.70;38.10;;;;;;5134538;27;20035;-72
2021/07/27 13:33:06;;;;;;;12.80;4.75;;;50.50;37.00;;;;;;5136413;27;20062;-73
2021/07/27 13:35:32;;;;;;;19.00;5.05;;;50.80;36.40;;;;;;5112914;28;20776;-72
2021/07/27 13:37:58;;;;;;;16.65;4.30;;;51.00;37.00;;;;;;5126915;27;20065;-71
2021/07/27 13:40:24;;;;;;;16.58;5.18;;;51.00;37.40;;;;;;5135936;27;20055;-71
2021/07/27 13:42:50;;;;;;;13.57;4.57;;;51.30;36.80;;;;;;5136245;27;20027;-74
2021/07/27 13:45:16;;;;;;;10.75;4.28;;;51.50;36.20;;;;;;5136097;27;20020;-71
2021/07/27 13:47:42;;;;;;;12.07;4.28;;;51.70;35.80;;;;;;5135781;27;20131;-70
2021/07/27 13:50:08;;;;;;;17.85;4.70;;;51.40;36.30;;;;;;5136055;27;20070;-72
2021/07/27 13:52:34;;;;;;;18.30;4.32;;;51.60;36.00;;;;;;5135762;27;20023;-72
2021/07/27 13:55:00;;;;;;;23.20;5.00;;;51.60;35.00;;;;;;5135851;27;20046;-71
2021/07/27 13:57:26;;;;;;;20.83;4.15;;;51.70;35.00;;;;;;5135927;27;20030;-72
2021/07/27 13:59:52;;;;;;;16.77;4.18;;;51.90;35.50;;;;;;5135413;27;20368;-73
2021/07/27 14:02:18;;;;;;;11.80;4.05;;;51.70;35.30;;;;;;5135239;27;20033;-72